Nearby METAR Reports

 

KMDQ - Huntsville/Madis, Alabama, USA
Distance from station: S 20mi, 32km
Updated: Mon, 12-Apr-2021 11:35am CDT
Clear
Clear
 Wind from NW
Wind: NW 5 mph , 7 km/h
Temperature: 70°F , 21°C
Dew Point: 50°F , 10°C
Humidity: 50%
Barometer: 29.91 inHg , 1012.9 hPa
Clouds: Clear
Visibility: 10 miles , 16 km
2021/04/12 16:35 KMDQ 121635Z AUTO 32004KT 10SM CLR 21/10 A2991 RMK A02 T02140100
KTHA - Tullahoma, Tennessee, USA
Distance from station: NE 24mi, 39km
Updated: Mon, 12-Apr-2021 11:35am CDT
Clear
Clear
 Wind from varies
Wind: varies 6 mph , 9 km/h, Gust: 13 mph , 20 km/h
Temperature: 70°F , 21°C
Dew Point: 48°F , 9°C
Humidity: 46%
Barometer: 29.89 inHg , 1012.2 hPa
Clouds: Clear
Visibility: 10 miles , 16 km
2021/04/12 16:35 KTHA 121635Z AUTO VRB05G11KT 10SM CLR 21/09 A2989 RMK A01
 
KBGF - Winchester, Tennessee, USA
Distance from station: E 29mi, 46km
Updated: Mon, 12-Apr-2021 11:35am CDT
Clear
Clear
 Wind from W
Wind: W 7 mph , 11 km/h
Temperature: 70°F , 21°C
Dew Point: 46°F , 8°C
Humidity: 43%
Barometer: 29.90 inHg , 1012.5 hPa
Clouds: Clear
Visibility: 10 miles , 16 km
2021/04/12 16:35 KBGF 121635Z AUTO 27006KT 10SM CLR 21/08 A2990 RMK A01
KHUA - Redstone Arsenal, Alabama, USA
Distance from station: S 33mi, 53km
Updated: Mon, 12-Apr-2021 10:58am CDT
Clear
Clear
 Wind from WSW
Wind: WSW 9 mph , 15 km/h
Temperature: 70°F , 21°C
Dew Point: 50°F , 10°C
Humidity: 50%
Barometer: 29.88 inHg , 1011.9 hPa
Clouds: Clear
Visibility: 10 miles , 16 km
2021/04/12 15:58 KHUA 121558Z AUTO 25008KT 10SM CLR 21/10 A2988 RMK AO2 SLP116 T02130096
 
KHSV - Huntsville, Alabama, USA
Distance from station: SSW 37mi, 59km
Updated: Mon, 12-Apr-2021 10:53am CDT
Clear
Clear
 Wind from W
Wind: W 9 mph , 15 km/h
Temperature: 72°F , 22°C
Dew Point: 52°F , 11°C
Humidity: 50%
Barometer: 29.90 inHg , 1012.5 hPa
Clouds: Clear
Visibility: 10 miles , 16 km
2021/04/12 15:53 KHSV 121553Z 28008KT 10SM CLR 22/11 A2990 RMK AO2 SLP120 T02170106
KDCU - Decatur, Alabama, USA
Distance from station: SSW 41mi, 66km
Updated: Mon, 12-Apr-2021 10:53am CDT
Clear
Clear
 Wind from WNW
Wind: WNW 10 mph , 17 km/h
Temperature: 70°F , 21°C
Dew Point: 46°F , 8°C
Humidity: 43%
Barometer: 29.90 inHg , 1012.5 hPa
Clouds: Clear
Visibility: 10 miles , 16 km
2021/04/12 15:53 KDCU 121553Z AUTO 30009KT 10SM CLR 21/08 A2990 RMK AO2 SLP122 T02110083
 
KMRC - Columbia, Tennessee, USA
Distance from station: NW 44mi, 71km
Updated: Mon, 12-Apr-2021 11:35am CDT
Clear
Clear
 Wind from calm
Wind: Calm
Temperature: 70°F , 21°C
Dew Point: 45°F , 7°C
Humidity: 40%
Barometer: 29.89 inHg , 1012.2 hPa
Clouds: Clear
Visibility: 10 miles , 16 km
2021/04/12 16:35 KMRC 121635Z AUTO 00000KT 10SM CLR 21/07 A2989 RMK A01
K4A6 - Scottsboro, Alabama, USA
Distance from station: SE 46mi, 74km
Updated: Mon, 12-Apr-2021 11:35am CDT
Clear
Clear
 Wind from S
Wind: S 9 mph , 15 km/h
Temperature: 73°F , 23°C
Dew Point: 50°F , 10°C
Humidity: 44%
Barometer: 29.89 inHg , 1012.2 hPa
Clouds: Clear
Visibility: 10 miles , 16 km
2021/04/12 16:35 K4A6 121635Z AUTO 19008KT 10SM CLR 23/10 A2989 RMK AO2
 
K9A4 - Courtland, Alabama, USA
Distance from station: SW 55mi, 89km
Updated: Thu, 22-Aug-2013 2:15pm CDT
NOT Current
Clear
Clear
 Wind from NNE
Wind: NNE 6 mph , 9 km/h
Temperature: 84°F , 29°C
Heat Index: 89°F , 32°C
Dew Point: 72°F , 22°C
Humidity: 66%
Barometer: 30.10 inHg , 1019.3 hPa
Clouds: Clear
Visibility: 10 miles , 16 km
2013/08/22 19:15 K9A4 221915Z AUTO 03005KT 10SM CLR 29/22 A3010 RMK AO2
KMQY - Smyrna, Tennessee, USA
Distance from station: N 60mi, 96km
Updated: Mon, 12-Apr-2021 10:56am CDT
Clear
Clear
 Wind from NW
Wind: NW 8 mph , 13 km/h
Temperature: 70°F , 21°C
Dew Point: 45°F , 7°C
Humidity: 40%
Barometer: 29.91 inHg , 1012.9 hPa
Clouds: Clear
Visibility: 10 miles , 16 km
2021/04/12 15:56 KMQY 121556Z 32007KT 10SM CLR 21/07 A2991 RMK AO2 SLP133 T02060072
 
K3A1 - Cullman/Folsom F, Alabama, USA
Distance from station: SSW 63mi, 102km
Updated: Mon, 01-Jul-2013 4:35pm CDT
NOT Current
Partly cloudy
Partly cloudy
 Wind from WNW
Wind: WNW 7 mph , 11 km/h
Temperature: 82°F , 28°C
Heat Index: 83°F , 28°C
Dew Point: 63°F , 17°C
Humidity: 51%
Barometer: 29.87 inHg , 1011.5 hPa
Clouds: Partly cloudy
Visibility: 10 miles , 16 km
Cloud details: Partly cloudy 4600 ft
Partly cloudy 6000 ft
Partly cloudy 7000 ft
2013/07/01 21:35 K3A1 012135Z AUTO 30006KT 10SM SCT046 SCT060 SCT070 28/17 A2987 RMK AO2 T02780172
KMSL - Muscle Shoal, Alabama, USA
Distance from station: WSW 65mi, 104km
Updated: Mon, 12-Apr-2021 10:53am CDT
Clear
Clear
 Wind from NW
Wind: NW 9 mph , 15 km/h
Temperature: 72°F , 22°C
Dew Point: 50°F , 10°C
Humidity: 47%
Barometer: 29.90 inHg , 1012.5 hPa
Clouds: Clear
Visibility: 10 miles , 16 km
2021/04/12 15:53 KMSL 121553Z AUTO 32008KT 10SM CLR 22/10 A2990 RMK AO2 SLP120 T02220100
 
K8A0 - Albertville Muni, Alabama, USA
Distance from station: SSE 66mi, 106km
Updated: Mon, 12-Apr-2021 11:35am CDT
Clear
Clear
 Wind from W
Wind: W 9 mph , 15 km/h
Temperature: 73°F , 23°C
Dew Point: 48°F , 9°C
Humidity: 41%
Barometer: 29.90 inHg , 1012.5 hPa
Clouds: Clear
Visibility: 10 miles , 16 km
2021/04/12 16:35 K8A0 121635Z AUTO 28008KT 10SM CLR 23/09 A2990 RMK AO2
KBNA - Nashville, Tennessee, USA
Distance from station: N 67mi, 108km
Updated: Mon, 12-Apr-2021 10:53am CDT
Clear
Clear
 Wind from NW
Wind: NW 3 mph , 6 km/h
Temperature: 70°F , 21°C
Dew Point: 45°F , 7°C
Humidity: 40%
Barometer: 29.90 inHg , 1012.5 hPa
Clouds: Clear
Visibility: 10 miles , 16 km
2021/04/12 15:53 KBNA 121553Z 32003KT 10SM CLR 21/07 A2990 RMK AO2 SLP120 T02110067
 
K4A9 - Ft Payne/Isbell, Alabama, USA
Distance from station: SE 68mi, 109km
Updated: Mon, 12-Apr-2021 11:35am CDT
Clear
Clear
 Wind from NW
Wind: NW 6 mph , 9 km/h
Temperature: 73°F , 23°C
Dew Point: 48°F , 9°C
Humidity: 41%
Barometer: 29.88 inHg , 1011.9 hPa
Clouds: Clear
Visibility: 10 miles , 16 km
2021/04/12 16:35 K4A9 121635Z AUTO 32005KT 10SM CLR 23/09 A2988 RMK AO2 T02280087